Woodville, California
Current Conditions -  °F | °C
As of 9:15 PM on Saturday 20 Dec 2014 (Local Time) from KPTV Reporting Station
Broken Clouds Broken Clouds  
Wind Chill: 52°   Ceiling: 4300
Heat Index: 52°   Visibility: 10mi
Dew Point: 48°   Wind: 0mph
Humidity: 88%   Direction: NA
Pressure: 30.26"   Gusts: NA
Location:  36.0318°N, 118.965°W
Report Text: KPTV 210515Z AUTO 00000KT 10SM BKN043 BKN048 11/09 A3026 RMK AO1
Loading
Personal Weather Stations






























Interactive Weather Map New forecast layout! Learn more

10-Day Weather Forecast

Advertisements
Track Severe Weather on mobile